MST,Max TemperatureF,Mean TemperatureF,Min TemperatureF,Max Dew PointF,MeanDew PointF,Min DewpointF,Max Humidity, Mean Humidity, Min Humidity, Max Sea Level PressureIn, Mean Sea Level PressureIn, Min Sea Level PressureIn, Max VisibilityMiles, Mean VisibilityMiles, Min VisibilityMiles, Max Wind SpeedMPH, Mean Wind SpeedMPH, Max Gust SpeedMPH,PrecipitationIn, CloudCover, Events, WindDirDegrees
2011-11-1,77,62,47,24,18,-4,28,18,7,30.04,29.85,29.77,10,10,10,30,15,37,0.00,0,,296
2011-11-2,64,49,34,17,11,4,43,27,10,30.27,30.17,30.07,10,10,10,26,13,33,0.00,0,,29
2011-11-3,69,53,36,15,7,5,27,18,8,30.11,29.94,29.73,10,10,10,18,7,21,0.00,0,,155
2011-11-4,63,48,33,45,30,9,93,54,15,29.71,29.61,29.47,10,7,2,33,15,39,0.73,4,Rain-Snow,214
2011-11-5,50,42,33,36,32,26,100,71,42,29.91,29.79,29.55,10,10,10,18,9,23,0.01,3,,211
2011-11-6,51,43,35,40,36,30,93,73,52,29.98,29.91,29.84,10,9,6,23,8,28,0.22,7,Rain,178
2011-11-7,49,43,36,38,35,26,92,71,50,30.09,29.97,29.86,10,9,1,18,6,23,0.01,4,Rain,356
2011-11-8,53,43,32,34,29,25,78,58,38,30.26,30.18,30.09,10,10,10,13,6,14,0.00,0,,68
2011-11-9,58,46,33,31,28,25,82,55,28,30.35,30.29,30.25,10,10,10,18,7,22,0.00,0,,40
2011-11-10,63,48,33,34,28,24,75,49,23,30.34,30.20,30.04,10,10,10,17,5,18,0.00,0,,54
2011-11-11,61,50,38,36,31,21,70,46,22,30.02,29.92,29.83,10,10,10,12,3,13,0.00,2,,132
2011-11-12,61,48,35,36,29,20,76,50,23,29.85,29.81,29.77,10,10,10,15,6,18,0.00,3,,168
2011-11-13,60,51,42,50,46,35,93,77,60,29.96,29.86,29.80,10,9,4,17,7,20,0.06,6,Rain,200
2011-11-14,61,50,38,46,42,38,93,71,49,29.91,29.86,29.81,10,10,10,15,7,17,0.00,0,,188
2011-11-15,62,50,38,45,40,36,92,68,43,29.97,29.94,29.90,10,10,10,16,6,25,0.00,0,,201
2011-11-16,64,51,37,41,37,34,92,66,39,30.15,30.08,29.97,10,10,10,12,5,14,0.00,0,,65
2011-11-17,66,50,34,36,32,28,82,53,24,30.13,30.00,29.85,10,10,10,14,5,15,0.00,0,,186
2011-11-18,67,53,39,35,30,23,70,45,19,29.83,29.72,29.63,10,10,10,28,13,33,0.00,0,,176
2011-11-19,60,50,39,39,34,26,70,51,32,29.78,29.69,29.60,10,10,10,26,12,31,0.00,0,,219
2011-11-20,60,50,39,42,39,34,89,67,44,29.96,29.84,29.76,10,10,10,22,6,26,0.00,4,,188
2011-11-21,56,46,36,43,38,32,89,70,51,30.20,30.01,29.86,10,10,10,17,7,22,T,3,Rain,214
2011-11-22,63,48,32,38,34,30,89,62,34,30.27,30.19,30.14,10,10,10,12,4,13,0.00,0,,84
2011-11-23,69,51,33,37,33,29,89,56,22,30.12,30.00,29.88,10,10,10,10,3,13,0.00,0,,98
2011-11-24,63,51,38,37,33,27,79,58,36,29.94,29.88,29.82,10,10,10,23,6,26,0.00,1,,209
2011-11-25,63,48,32,39,30,25,89,56,23,30.18,30.06,29.94,10,10,10,22,6,26,0.00,0,,61
2011-11-26,63,49,34,32,23,15,70,44,17,30.40,30.33,30.20,10,10,10,18,8,24,0.00,0,,49
2011-11-27,67,50,33,22,16,11,48,30,12,30.42,30.35,30.26,10,10,10,8,3,9,0.00,0,,38
2011-11-28,65,49,32,25,22,19,59,39,18,30.26,30.18,30.11,10,10,10,10,2,15,0.00,0,,78
2011-11-29,68,53,37,25,23,20,59,39,18,30.18,30.10,30.04,10,10,10,12,6,14,0.00,0,,65
2011-11-30,72,53,34,26,20,15,56,34,12,30.03,29.78,29.56,10,10,10,24,8,35,0.00,1,,194